createdAt,value
2018-03-01T00:01:32.247Z,61.08
2018-03-01T00:03:33.745Z,60.89
2018-03-01T00:05:35.377Z,61.08
2018-03-01T00:08:59.765Z,60.80
2018-03-01T00:11:01.420Z,60.99
2018-03-01T00:13:03.020Z,61.08
2018-03-01T00:15:46.014Z,60.80
2018-03-01T00:18:29.005Z,60.89
2018-03-01T00:20:30.650Z,61.36
2018-03-01T00:22:32.608Z,60.89
2018-03-01T00:24:33.983Z,60.99
2018-03-01T00:26:35.595Z,60.99
2018-03-01T00:29:18.727Z,60.33
2018-03-01T00:32:01.625Z,60.52
2018-03-01T00:34:44.640Z,60.61
2018-03-01T00:36:45.991Z,60.80
2018-03-01T00:39:28.977Z,60.71
2018-03-01T00:41:30.654Z,60.99
2018-03-01T00:43:32.165Z,60.89
2018-03-01T00:45:34.015Z,61.08
2018-03-01T00:47:35.610Z,60.71
2018-03-01T00:50:18.908Z,60.99
2018-03-01T00:52:20.555Z,60.99
2018-03-01T00:54:22.251Z,60.61
2018-03-01T00:56:24.215Z,60.80
2018-03-01T00:58:25.825Z,60.61
2018-03-01T01:01:08.846Z,60.80
2018-03-01T01:03:52.287Z,60.33
2018-03-01T01:05:54.120Z,60.14
2018-03-01T01:07:55.995Z,60.42
2018-03-01T01:09:57.695Z,60.24
2018-03-01T01:11:59.541Z,60.14
2018-03-01T01:14:01.256Z,60.05
2018-03-01T01:16:44.460Z,60.52
2018-03-01T01:19:27.768Z,60.52
2018-03-01T01:22:11.141Z,60.52
2018-03-01T01:25:35.156Z,60.42
2018-03-01T01:27:36.789Z,60.14
2018-03-01T01:30:19.817Z,60.33
2018-03-01T01:32:21.329Z,60.33
2018-03-01T01:34:23.119Z,59.67
2018-03-01T01:36:24.992Z,59.77
2018-03-01T01:39:08.153Z,59.48
2018-03-01T01:41:09.943Z,59.20
2018-03-01T01:43:52.915Z,59.11
2018-03-01T01:46:35.799Z,59.11
2018-03-01T01:49:18.606Z,59.20
2018-03-01T01:52:01.771Z,59.77
2018-03-01T01:54:03.609Z,59.86
2018-03-01T01:56:05.424Z,60.05
2018-03-01T01:58:07.084Z,60.42
2018-03-01T02:00:50.224Z,60.24
2018-03-01T02:02:52.025Z,59.95
2018-03-01T02:05:34.723Z,59.86
2018-03-01T02:07:36.153Z,59.77
2018-03-01T02:10:19.486Z,60.14
2018-03-01T02:12:21.274Z,60.14
2018-03-01T02:14:23.162Z,60.14
2018-03-01T02:17:06.747Z,59.86
2018-03-01T02:19:50.045Z,59.86
2018-03-01T02:22:33.111Z,59.86
2018-03-01T02:25:16.137Z,59.58
2018-03-01T02:28:00.276Z,60.24
2018-03-01T02:30:43.302Z,60.33
2018-03-01T02:32:45.508Z,60.33
2018-03-01T02:35:28.705Z,60.71
2018-03-01T02:38:12.903Z,61.08
2018-03-01T02:40:14.830Z,61.18
2018-03-01T02:42:16.201Z,60.89
2018-03-01T02:44:18.270Z,61.08
2018-03-01T02:47:03.706Z,60.42
2018-03-01T02:49:46.946Z,60.52
2018-03-01T02:52:30.360Z,60.80
2018-03-01T02:54:32.312Z,60.61
2018-03-01T02:56:33.962Z,61.08
2018-03-01T02:59:17.825Z,60.80
2018-03-01T03:01:19.543Z,61.08
2018-03-01T03:04:02.618Z,61.36
2018-03-01T03:06:46.071Z,61.36
2018-03-01T03:10:10.167Z,61.46
2018-03-01T03:12:53.921Z,61.27
2018-03-01T03:14:56.185Z,61.84
2018-03-01T03:16:57.869Z,61.36
2018-03-01T03:19:41.077Z,61.36
2018-03-01T03:21:42.995Z,61.18
2018-03-01T03:23:44.397Z,61.46
2018-03-01T03:25:45.925Z,61.36
2018-03-01T03:28:29.050Z,61.46
2018-03-01T03:31:12.122Z,60.89
2018-03-01T03:33:55.355Z,60.89
2018-03-01T03:36:38.730Z,60.71
2018-03-01T03:38:40.865Z,60.80
2018-03-01T03:41:24.029Z,60.61
2018-03-01T03:44:07.819Z,61.08
2018-03-01T03:46:09.653Z,60.80
2018-03-01T03:48:11.415Z,60.89
2018-03-01T03:50:54.842Z,61.27
2018-03-01T03:52:56.678Z,61.46
2018-03-01T03:55:39.863Z,61.84
2018-03-01T03:59:04.124Z,61.74
2018-03-01T04:01:46.342Z,61.36
2018-03-01T04:04:30.462Z,61.55
2018-03-01T04:06:32.922Z,61.36
2018-03-01T04:09:17.237Z,61.93
2018-03-01T04:12:00.465Z,62.21
2018-03-01T04:14:43.164Z,61.55
2018-03-01T04:16:44.594Z,61.84
2018-03-01T04:19:27.772Z,61.65
2018-03-01T04:22:09.949Z,61.36
2018-03-01T04:24:52.663Z,60.71
2018-03-01T04:27:36.854Z,61.36
2018-03-01T04:30:19.970Z,61.27
2018-03-01T04:32:21.921Z,61.27
2018-03-01T04:35:05.052Z,60.99
2018-03-01T04:37:51.272Z,60.80
2018-03-01T04:40:49.721Z,60.61
2018-03-01T04:44:31.701Z,60.14
2018-03-01T04:46:33.779Z,60.05
2018-03-01T04:49:30.000Z,60.42
2018-03-01T04:53:14.146Z,59.95
2018-03-01T04:56:11.047Z,60.61
2018-03-01T04:58:12.876Z,60.52
2018-03-01T05:01:03.625Z,60.14
2018-03-01T05:03:53.891Z,60.14
2018-03-01T05:06:41.279Z,59.58
2018-03-01T05:09:37.630Z,59.58
2018-03-01T05:12:24.393Z,59.58
2018-03-01T05:15:27.876Z,59.58
2018-03-01T05:18:35.406Z,59.86
2018-03-01T05:21:21.611Z,59.67
2018-03-01T05:24:28.568Z,59.86
2018-03-01T05:27:21.857Z,60.14
2018-03-01T05:30:18.072Z,59.77
2018-03-01T05:33:09.733Z,59.77
2018-03-01T05:35:58.116Z,59.67
2018-03-01T05:38:44.547Z,60.14
2018-03-01T05:42:22.708Z,59.77
2018-03-01T05:45:17.872Z,59.77
2018-03-01T05:48:12.958Z,59.77
2018-03-01T05:51:04.477Z,59.95
2018-03-01T05:53:51.017Z,59.77
2018-03-01T05:56:36.503Z,59.86
2018-03-01T05:59:26.905Z,59.30
2018-03-01T06:02:27.556Z,59.95
2018-03-01T06:05:28.556Z,59.80
2018-03-01T06:07:56.077Z,59.39
2018-03-01T06:10:59.078Z,59.42
2018-03-01T06:14:29.864Z,59.01
2018-03-01T06:17:21.294Z,59.51
2018-03-01T06:20:07.576Z,59.33
2018-03-01T06:23:24.529Z,59.51
2018-03-01T06:26:27.713Z,59.33
2018-03-01T06:29:19.399Z,59.39
2018-03-01T06:32:12.142Z,59.89
2018-03-01T06:35:27.077Z,59.70
2018-03-01T06:38:12.816Z,59.58
2018-03-01T06:40:58.038Z,59.39
2018-03-01T06:43:49.264Z,59.33
2018-03-01T06:45:51.369Z,59.33
2018-03-01T06:48:37.726Z,59.42
2018-03-01T06:51:29.929Z,60.14
2018-03-01T06:54:38.392Z,59.89
2018-03-01T06:57:30.071Z,59.51
2018-03-01T07:00:42.584Z,60.08
2018-03-01T07:04:07.305Z,60.08
2018-03-01T07:06:57.408Z,59.51
2018-03-01T09:24:12.243Z,44.68
2018-03-01T09:26:57.710Z,43.83
2018-03-01T09:29:50.260Z,44.39
